sensor_id;sensor_type;location;lat;lon;timestamp;P1;durP1;ratioP1;P2;durP2;ratioP2
4921;SDS011;16625;53.624;10.106;2022-10-16T00:00:21;13.30;;;7.97;;
4921;SDS011;16625;53.624;10.106;2022-10-16T00:02:48;11.03;;;7.73;;
4921;SDS011;16625;53.624;10.106;2022-10-16T00:05:14;14.13;;;9.10;;
4921;SDS011;16625;53.624;10.106;2022-10-16T00:07:41;14.43;;;7.93;;
4921;SDS011;16625;53.624;10.106;2022-10-16T00:10:08;15.93;;;6.60;;
4921;SDS011;16625;53.624;10.106;2022-10-16T00:12:35;13.00;;;6.83;;
4921;SDS011;16625;53.624;10.106;2022-10-16T00:15:04;10.60;;;7.17;;
4921;SDS011;16625;53.624;10.106;2022-10-16T00:17:31;8.27;;;5.97;;
4921;SDS011;16625;53.624;10.106;2022-10-16T00:19:58;12.30;;;7.30;;
4921;SDS011;16625;53.624;10.106;2022-10-16T00:22:25;8.73;;;5.93;;
4921;SDS011;16625;53.624;10.106;2022-10-16T00:24:52;9.40;;;5.70;;
4921;SDS011;16625;53.624;10.106;2022-10-16T00:27:19;7.53;;;5.67;;
4921;SDS011;16625;53.624;10.106;2022-10-16T00:29:49;12.13;;;5.93;;
4921;SDS011;16625;53.624;10.106;2022-10-16T00:32:17;7.67;;;5.40;;
4921;SDS011;16625;53.624;10.106;2022-10-16T00:34:44;9.10;;;7.13;;
4921;SDS011;16625;53.624;10.106;2022-10-16T00:37:11;6.87;;;5.67;;
4921;SDS011;16625;53.624;10.106;2022-10-16T00:39:38;7.53;;;5.13;;
4921;SDS011;16625;53.624;10.106;2022-10-16T00:42:05;5.70;;;4.00;;
4921;SDS011;16625;53.624;10.106;2022-10-16T00:44:42;7.37;;;4.90;;
4921;SDS011;16625;53.624;10.106;2022-10-16T00:47:12;8.40;;;4.20;;
4921;SDS011;16625;53.624;10.106;2022-10-16T00:49:45;4.77;;;3.70;;
4921;SDS011;16625;53.624;10.106;2022-10-16T00:52:13;11.53;;;4.00;;
4921;SDS011;16625;53.624;10.106;2022-10-16T00:54:41;8.70;;;4.17;;
4921;SDS011;16625;53.624;10.106;2022-10-16T00:57:08;11.50;;;3.70;;
4921;SDS011;16625;53.624;10.106;2022-10-16T00:59:35;10.17;;;3.80;;
4921;SDS011;16625;53.624;10.106;2022-10-16T01:02:07;9.33;;;3.60;;
4921;SDS011;16625;53.624;10.106;2022-10-16T01:04:36;7.17;;;3.90;;
4921;SDS011;16625;53.624;10.106;2022-10-16T01:07:09;11.73;;;3.40;;
4921;SDS011;16625;53.624;10.106;2022-10-16T01:09:47;3.37;;;2.73;;
4921;SDS011;16625;53.624;10.106;2022-10-16T01:12:23;3.50;;;2.90;;
4921;SDS011;16625;53.624;10.106;2022-10-16T01:14:59;6.17;;;3.30;;
4921;SDS011;16625;53.624;10.106;2022-10-16T01:17:43;5.10;;;2.80;;
4921;SDS011;16625;53.624;10.106;2022-10-16T01:20:15;4.60;;;3.40;;
4921;SDS011;16625;53.624;10.106;2022-10-16T01:22:50;9.37;;;3.60;;
4921;SDS011;16625;53.624;10.106;2022-10-16T01:25:33;11.47;;;4.20;;
4921;SDS011;16625;53.624;10.106;2022-10-16T01:28:16;7.60;;;4.73;;
4921;SDS011;16625;53.624;10.106;2022-10-16T01:30:47;14.80;;;4.40;;
4921;SDS011;16625;53.624;10.106;2022-10-16T01:33:19;10.00;;;3.90;;
4921;SDS011;16625;53.624;10.106;2022-10-16T01:35:47;7.50;;;4.03;;
4921;SDS011;16625;53.624;10.106;2022-10-16T01:38:19;7.07;;;4.90;;
4921;SDS011;16625;53.624;10.106;2022-10-16T01:40:52;6.40;;;3.90;;
4921;SDS011;16625;53.624;10.106;2022-10-16T01:43:26;5.80;;;3.80;;
4921;SDS011;16625;53.624;10.106;2022-10-16T01:45:58;6.93;;;4.30;;
4921;SDS011;16625;53.624;10.106;2022-10-16T01:48:26;8.70;;;3.23;;
4921;SDS011;16625;53.624;10.106;2022-10-16T01:50:57;9.20;;;3.90;;
4921;SDS011;16625;53.624;10.106;2022-10-16T01:53:29;10.60;;;3.57;;
4921;SDS011;16625;53.624;10.106;2022-10-16T01:55:57;4.10;;;2.90;;
4921;SDS011;16625;53.624;10.106;2022-10-16T01:58:27;4.70;;;3.50;;
4921;SDS011;16625;53.624;10.106;2022-10-16T02:00:59;4.33;;;2.80;;
4921;SDS011;16625;53.624;10.106;2022-10-16T02:03:27;6.90;;;2.83;;
4921;SDS011;16625;53.624;10.106;2022-10-16T02:05:55;6.93;;;2.97;;
4921;SDS011;16625;53.624;10.106;2022-10-16T02:08:24;7.00;;;2.63;;
4921;SDS011;16625;53.624;10.106;2022-10-16T02:10:54;3.90;;;2.83;;
4921;SDS011;16625;53.624;10.106;2022-10-16T02:13:22;5.93;;;3.20;;
4921;SDS011;16625;53.624;10.106;2022-10-16T02:15:53;4.70;;;2.67;;
4921;SDS011;16625;53.624;10.106;2022-10-16T02:18:20;5.63;;;2.83;;
4921;SDS011;16625;53.624;10.106;2022-10-16T02:20:49;4.73;;;2.50;;
4921;SDS011;16625;53.624;10.106;2022-10-16T02:23:19;9.40;;;4.10;;
4921;SDS011;16625;53.624;10.106;2022-10-16T02:25:56;4.47;;;2.57;;
4921;SDS011;16625;53.624;10.106;2022-10-16T02:28:27;10.10;;;2.87;;
4921;SDS011;16625;53.624;10.106;2022-10-16T02:31:01;7.00;;;2.73;;
4921;SDS011;16625;53.624;10.106;2022-10-16T02:33:31;8.03;;;2.27;;
4921;SDS011;16625;53.624;10.106;2022-10-16T02:36:01;8.60;;;2.70;;
4921;SDS011;16625;53.624;10.106;2022-10-16T02:38:28;7.00;;;2.63;;
4921;SDS011;16625;53.624;10.106;2022-10-16T02:40:56;8.50;;;2.60;;
4921;SDS011;16625;53.624;10.106;2022-10-16T02:43:24;6.40;;;2.57;;
4921;SDS011;16625;53.624;10.106;2022-10-16T02:45:51;7.30;;;2.37;;
4921;SDS011;16625;53.624;10.106;2022-10-16T02:48:19;15.27;;;3.13;;
4921;SDS011;16625;53.624;10.106;2022-10-16T02:50:45;5.83;;;2.50;;
4921;SDS011;16625;53.624;10.106;2022-10-16T02:53:12;3.50;;;2.60;;
4921;SDS011;16625;53.624;10.106;2022-10-16T02:55:39;3.00;;;2.63;;
4921;SDS011;16625;53.624;10.106;2022-10-16T02:58:06;2.97;;;2.67;;
4921;SDS011;16625;53.624;10.106;2022-10-16T03:00:32;7.60;;;3.70;;
4921;SDS011;16625;53.624;10.106;2022-10-16T03:02:59;9.90;;;2.53;;
4921;SDS011;16625;53.624;10.106;2022-10-16T03:05:27;3.47;;;2.53;;
4921;SDS011;16625;53.624;10.106;2022-10-16T03:07:54;11.43;;;3.00;;
4921;SDS011;16625;53.624;10.106;2022-10-16T03:10:21;5.20;;;2.47;;
4921;SDS011;16625;53.624;10.106;2022-10-16T03:12:47;9.40;;;2.87;;
4921;SDS011;16625;53.624;10.106;2022-10-16T03:15:14;3.20;;;2.30;;
4921;SDS011;16625;53.624;10.106;2022-10-16T03:17:41;2.87;;;2.17;;
4921;SDS011;16625;53.624;10.106;2022-10-16T03:20:08;8.77;;;2.60;;
4921;SDS011;16625;53.624;10.106;2022-10-16T03:22:37;7.20;;;2.80;;
4921;SDS011;16625;53.624;10.106;2022-10-16T03:25:04;4.03;;;3.33;;
4921;SDS011;16625;53.624;10.106;2022-10-16T03:27:31;4.33;;;3.23;;
4921;SDS011;16625;53.624;10.106;2022-10-16T03:29:58;5.47;;;3.10;;
4921;SDS011;16625;53.624;10.106;2022-10-16T03:32:24;6.30;;;3.03;;
4921;SDS011;16625;53.624;10.106;2022-10-16T03:34:53;4.30;;;2.90;;
4921;SDS011;16625;53.624;10.106;2022-10-16T03:37:21;3.97;;;2.90;;
4921;SDS011;16625;53.624;10.106;2022-10-16T03:39:49;5.03;;;3.27;;
4921;SDS011;16625;53.624;10.106;2022-10-16T03:42:16;8.70;;;3.80;;
4921;SDS011;16625;53.624;10.106;2022-10-16T03:44:43;6.13;;;3.83;;
4921;SDS011;16625;53.624;10.106;2022-10-16T03:47:09;3.90;;;3.20;;
4921;SDS011;16625;53.624;10.106;2022-10-16T03:49:36;4.93;;;3.13;;
4921;SDS011;16625;53.624;10.106;2022-10-16T03:52:03;6.10;;;3.50;;
4921;SDS011;16625;53.624;10.106;2022-10-16T03:54:30;8.13;;;3.10;;
4921;SDS011;16625;53.624;10.106;2022-10-16T03:56:59;4.80;;;2.97;;
4921;SDS011;16625;53.624;10.106;2022-10-16T03:59:26;7.03;;;2.83;;
4921;SDS011;16625;53.624;10.106;2022-10-16T04:01:53;6.10;;;2.87;;
4921;SDS011;16625;53.624;10.106;2022-10-16T04:04:19;8.13;;;3.57;;
4921;SDS011;16625;53.624;10.106;2022-10-16T04:06:46;5.70;;;3.50;;
4921;SDS011;16625;53.624;10.106;2022-10-16T04:09:13;5.50;;;3.00;;
4921;SDS011;16625;53.624;10.106;2022-10-16T04:11:40;3.60;;;2.77;;
4921;SDS011;16625;53.624;10.106;2022-10-16T04:14:08;7.80;;;2.93;;
4921;SDS011;16625;53.624;10.106;2022-10-16T04:16:34;8.00;;;3.33;;
4921;SDS011;16625;53.624;10.106;2022-10-16T04:19:01;2.83;;;2.47;;
4921;SDS011;16625;53.624;10.106;2022-10-16T04:21:28;7.50;;;2.97;;
4921;SDS011;16625;53.624;10.106;2022-10-16T04:23:55;6.27;;;3.20;;
4921;SDS011;16625;53.624;10.106;2022-10-16T04:26:22;5.90;;;3.20;;
4921;SDS011;16625;53.624;10.106;2022-10-16T04:28:48;7.27;;;2.97;;
4921;SDS011;16625;53.624;10.106;2022-10-16T04:31:17;12.03;;;3.17;;
4921;SDS011;16625;53.624;10.106;2022-10-16T04:33:43;3.80;;;3.17;;
4921;SDS011;16625;53.624;10.106;2022-10-16T04:36:10;3.00;;;2.47;;
4921;SDS011;16625;53.624;10.106;2022-10-16T04:38:37;8.77;;;2.90;;
4921;SDS011;16625;53.624;10.106;2022-10-16T04:41:04;6.23;;;2.77;;
4921;SDS011;16625;53.624;10.106;2022-10-16T04:43:31;4.90;;;2.77;;
4921;SDS011;16625;53.624;10.106;2022-10-16T04:46:01;4.10;;;3.10;;
4921;SDS011;16625;53.624;10.106;2022-10-16T04:48:31;3.60;;;2.60;;
4921;SDS011;16625;53.624;10.106;2022-10-16T04:50:58;3.93;;;2.50;;
4921;SDS011;16625;53.624;10.106;2022-10-16T04:53:25;5.13;;;2.60;;
4921;SDS011;16625;53.624;10.106;2022-10-16T04:55:52;3.30;;;2.57;;
4921;SDS011;16625;53.624;10.106;2022-10-16T04:58:18;6.63;;;3.90;;
4921;SDS011;16625;53.624;10.106;2022-10-16T05:00:45;3.67;;;2.77;;
4921;SDS011;16625;53.624;10.106;2022-10-16T05:03:12;4.67;;;2.60;;
4921;SDS011;16625;53.624;10.106;2022-10-16T05:05:43;4.83;;;2.80;;
4921;SDS011;16625;53.624;10.106;2022-10-16T05:08:11;2.90;;;2.40;;
4921;SDS011;16625;53.624;10.106;2022-10-16T05:10:40;8.00;;;3.20;;
4921;SDS011;16625;53.624;10.106;2022-10-16T05:13:08;6.03;;;2.70;;
4921;SDS011;16625;53.624;10.106;2022-10-16T05:15:35;4.50;;;3.53;;
4921;SDS011;16625;53.624;10.106;2022-10-16T05:18:02;4.10;;;2.70;;
4921;SDS011;16625;53.624;10.106;2022-10-16T05:20:29;8.17;;;3.30;;
4921;SDS011;16625;53.624;10.106;2022-10-16T05:22:57;8.60;;;2.80;;
4921;SDS011;16625;53.624;10.106;2022-10-16T05:25:24;7.50;;;2.90;;
4921;SDS011;16625;53.624;10.106;2022-10-16T05:27:50;4.60;;;2.90;;
4921;SDS011;16625;53.624;10.106;2022-10-16T05:30:17;14.17;;;2.63;;
4921;SDS011;16625;53.624;10.106;2022-10-16T05:32:46;5.70;;;2.93;;
4921;SDS011;16625;53.624;10.106;2022-10-16T05:35:13;5.87;;;3.70;;
4921;SDS011;16625;53.624;10.106;2022-10-16T05:37:40;8.83;;;2.33;;
4921;SDS011;16625;53.624;10.106;2022-10-16T05:40:09;6.23;;;3.20;;
4921;SDS011;16625;53.624;10.106;2022-10-16T05:42:37;5.30;;;3.00;;
4921;SDS011;16625;53.624;10.106;2022-10-16T05:45:05;6.57;;;3.40;;
4921;SDS011;16625;53.624;10.106;2022-10-16T05:47:32;7.33;;;3.07;;
4921;SDS011;16625;53.624;10.106;2022-10-16T05:49:59;7.70;;;3.30;;
4921;SDS011;16625;53.624;10.106;2022-10-16T05:52:26;4.83;;;3.40;;
4921;SDS011;16625;53.624;10.106;2022-10-16T05:54:53;7.20;;;4.43;;
4921;SDS011;16625;53.624;10.106;2022-10-16T05:57:21;5.13;;;3.10;;
4921;SDS011;16625;53.624;10.106;2022-10-16T05:59:48;8.50;;;3.00;;
4921;SDS011;16625;53.624;10.106;2022-10-16T06:02:15;4.83;;;3.47;;
4921;SDS011;16625;53.624;10.106;2022-10-16T06:04:42;6.83;;;3.63;;
4921;SDS011;16625;53.624;10.106;2022-10-16T06:07:09;5.27;;;3.13;;
4921;SDS011;16625;53.624;10.106;2022-10-16T06:09:36;11.37;;;3.37;;
4921;SDS011;16625;53.624;10.106;2022-10-16T06:12:03;12.80;;;3.07;;
4921;SDS011;16625;53.624;10.106;2022-10-16T06:14:31;13.57;;;3.77;;
4921;SDS011;16625;53.624;10.106;2022-10-16T06:16:58;8.27;;;4.00;;
4921;SDS011;16625;53.624;10.106;2022-10-16T06:19:25;7.40;;;2.97;;
4921;SDS011;16625;53.624;10.106;2022-10-16T06:21:51;5.20;;;3.40;;
4921;SDS011;16625;53.624;10.106;2022-10-16T06:24:18;9.80;;;3.93;;
4921;SDS011;16625;53.624;10.106;2022-10-16T06:26:45;5.37;;;3.40;;
4921;SDS011;16625;53.624;10.106;2022-10-16T06:29:12;6.10;;;3.10;;
4921;SDS011;16625;53.624;10.106;2022-10-16T06:31:40;9.43;;;3.70;;
4921;SDS011;16625;53.624;10.106;2022-10-16T06:34:08;10.53;;;3.90;;
4921;SDS011;16625;53.624;10.106;2022-10-16T06:36:36;24.53;;;3.83;;
4921;SDS011;16625;53.624;10.106;2022-10-16T06:39:04;8.43;;;3.30;;
4921;SDS011;16625;53.624;10.106;2022-10-16T06:41:32;7.50;;;3.40;;
4921;SDS011;16625;53.624;10.106;2022-10-16T06:44:00;6.90;;;3.60;;
4921;SDS011;16625;53.624;10.106;2022-10-16T06:46:27;3.30;;;3.00;;
4921;SDS011;16625;53.624;10.106;2022-10-16T06:48:55;4.70;;;3.10;;
4921;SDS011;16625;53.624;10.106;2022-10-16T06:51:22;8.10;;;3.60;;
4921;SDS011;16625;53.624;10.106;2022-10-16T06:53:50;8.33;;;4.57;;
4921;SDS011;16625;53.624;10.106;2022-10-16T06:56:18;7.10;;;3.37;;
4921;SDS011;16625;53.624;10.106;2022-10-16T06:58:47;11.93;;;3.80;;
4921;SDS011;16625;53.624;10.106;2022-10-16T07:01:14;6.40;;;3.80;;
4921;SDS011;16625;53.624;10.106;2022-10-16T07:03:43;4.70;;;2.90;;
4921;SDS011;16625;53.624;10.106;2022-10-16T07:06:12;7.70;;;3.43;;
4921;SDS011;16625;53.624;10.106;2022-10-16T07:08:41;17.40;;;3.47;;
4921;SDS011;16625;53.624;10.106;2022-10-16T07:11:10;5.87;;;3.90;;
4921;SDS011;16625;53.624;10.106;2022-10-16T07:13:39;12.27;;;3.60;;
4921;SDS011;16625;53.624;10.106;2022-10-16T07:16:06;10.37;;;3.57;;
4921;SDS011;16625;53.624;10.106;2022-10-16T07:18:35;9.40;;;4.10;;
4921;SDS011;16625;53.624;10.106;2022-10-16T07:21:05;6.43;;;3.37;;
4921;SDS011;16625;53.624;10.106;2022-10-16T07:23:34;13.37;;;3.50;;
4921;SDS011;16625;53.624;10.106;2022-10-16T07:26:02;5.60;;;2.80;;
4921;SDS011;16625;53.624;10.106;2022-10-16T07:28:29;8.60;;;4.57;;
4921;SDS011;16625;53.624;10.106;2022-10-16T07:30:59;5.80;;;3.13;;
4921;SDS011;16625;53.624;10.106;2022-10-16T07:33:28;9.17;;;3.97;;
4921;SDS011;16625;53.624;10.106;2022-10-16T07:35:55;10.20;;;3.03;;
4921;SDS011;16625;53.624;10.106;2022-10-16T07:38:21;6.53;;;3.73;;
4921;SDS011;16625;53.624;10.106;2022-10-16T07:40:56;4.50;;;3.63;;
4921;SDS011;16625;53.624;10.106;2022-10-16T07:43:24;6.60;;;3.43;;
4921;SDS011;16625;53.624;10.106;2022-10-16T07:45:52;7.30;;;3.87;;
4921;SDS011;16625;53.624;10.106;2022-10-16T07:48:20;7.60;;;3.50;;
4921;SDS011;16625;53.624;10.106;2022-10-16T07:50:47;6.60;;;3.27;;
4921;SDS011;16625;53.624;10.106;2022-10-16T07:53:15;5.00;;;2.73;;
4921;SDS011;16625;53.624;10.106;2022-10-16T07:55:42;4.23;;;2.87;;
4921;SDS011;16625;53.624;10.106;2022-10-16T07:58:10;4.03;;;2.80;;
4921;SDS011;16625;53.624;10.106;2022-10-16T08:00:39;5.53;;;3.30;;
4921;SDS011;16625;53.624;10.106;2022-10-16T08:03:05;6.67;;;2.97;;
4921;SDS011;16625;53.624;10.106;2022-10-16T08:05:33;5.80;;;3.17;;
4921;SDS011;16625;53.624;10.106;2022-10-16T08:08:01;13.17;;;3.90;;
4921;SDS011;16625;53.624;10.106;2022-10-16T08:10:29;5.97;;;2.97;;
4921;SDS011;16625;53.624;10.106;2022-10-16T08:12:56;5.90;;;3.13;;
4921;SDS011;16625;53.624;10.106;2022-10-16T08:15:25;4.53;;;3.10;;
4921;SDS011;16625;53.624;10.106;2022-10-16T08:17:56;5.00;;;2.60;;
4921;SDS011;16625;53.624;10.106;2022-10-16T08:20:24;6.63;;;3.27;;
4921;SDS011;16625;53.624;10.106;2022-10-16T08:22:52;8.43;;;3.27;;
4921;SDS011;16625;53.624;10.106;2022-10-16T08:25:20;5.20;;;3.50;;
4921;SDS011;16625;53.624;10.106;2022-10-16T08:27:48;4.63;;;3.43;;
4921;SDS011;16625;53.624;10.106;2022-10-16T08:30:16;6.10;;;3.40;;
4921;SDS011;16625;53.624;10.106;2022-10-16T08:32:46;7.67;;;3.50;;
4921;SDS011;16625;53.624;10.106;2022-10-16T08:35:14;11.73;;;2.87;;
4921;SDS011;16625;53.624;10.106;2022-10-16T08:37:42;4.57;;;2.83;;
4921;SDS011;16625;53.624;10.106;2022-10-16T08:40:14;6.03;;;3.47;;
4921;SDS011;16625;53.624;10.106;2022-10-16T08:45:51;7.87;;;2.70;;
4921;SDS011;16625;53.624;10.106;2022-10-16T08:48:41;3.10;;;2.30;;
4921;SDS011;16625;53.624;10.106;2022-10-16T08:51:13;8.47;;;2.70;;
4921;SDS011;16625;53.624;10.106;2022-10-16T08:53:46;6.70;;;4.00;;
4921;SDS011;16625;53.624;10.106;2022-10-16T08:56:17;4.47;;;2.77;;
4921;SDS011;16625;53.624;10.106;2022-10-16T08:58:45;5.03;;;2.50;;
4921;SDS011;16625;53.624;10.106;2022-10-16T09:01:13;4.87;;;2.73;;
4921;SDS011;16625;53.624;10.106;2022-10-16T09:03:48;4.00;;;2.20;;
4921;SDS011;16625;53.624;10.106;2022-10-16T09:09:26;4.30;;;2.77;;
4921;SDS011;16625;53.624;10.106;2022-10-16T09:12:08;10.60;;;3.47;;
4921;SDS011;16625;53.624;10.106;2022-10-16T09:14:46;4.00;;;2.60;;
4921;SDS011;16625;53.624;10.106;2022-10-16T09:17:33;4.90;;;2.20;;
4921;SDS011;16625;53.624;10.106;2022-10-16T09:20:16;3.17;;;2.60;;
4921;SDS011;16625;53.624;10.106;2022-10-16T09:23:08;3.27;;;2.50;;
4921;SDS011;16625;53.624;10.106;2022-10-16T09:25:42;3.77;;;2.50;;
4921;SDS011;16625;53.624;10.106;2022-10-16T09:28:10;6.80;;;2.67;;
4921;SDS011;16625;53.624;10.106;2022-10-16T09:30:38;6.70;;;2.60;;
4921;SDS011;16625;53.624;10.106;2022-10-16T09:33:07;2.63;;;2.13;;
4921;SDS011;16625;53.624;10.106;2022-10-16T09:35:38;3.57;;;2.20;;
4921;SDS011;16625;53.624;10.106;2022-10-16T09:38:07;4.30;;;2.17;;
4921;SDS011;16625;53.624;10.106;2022-10-16T09:40:35;3.60;;;1.90;;
4921;SDS011;16625;53.624;10.106;2022-10-16T09:43:09;9.00;;;3.03;;
4921;SDS011;16625;53.624;10.106;2022-10-16T09:45:53;5.70;;;2.63;;
4921;SDS011;16625;53.624;10.106;2022-10-16T09:48:21;4.13;;;2.00;;
4921;SDS011;16625;53.624;10.106;2022-10-16T09:50:56;3.60;;;2.60;;
4921;SDS011;16625;53.624;10.106;2022-10-16T09:53:25;2.43;;;1.87;;
4921;SDS011;16625;53.624;10.106;2022-10-16T09:56:09;7.20;;;2.40;;
4921;SDS011;16625;53.624;10.106;2022-10-16T09:58:41;4.83;;;2.10;;
4921;SDS011;16625;53.624;10.106;2022-10-16T10:01:10;3.00;;;2.30;;
4921;SDS011;16625;53.624;10.106;2022-10-16T10:03:41;3.53;;;2.00;;
4921;SDS011;16625;53.624;10.106;2022-10-16T10:06:22;3.47;;;1.77;;
4921;SDS011;16625;53.624;10.106;2022-10-16T10:08:58;4.23;;;2.30;;
4921;SDS011;16625;53.624;10.106;2022-10-16T10:11:37;6.70;;;2.33;;
4921;SDS011;16625;53.624;10.106;2022-10-16T10:14:15;5.93;;;3.13;;
4921;SDS011;16625;53.624;10.106;2022-10-16T10:16:51;7.53;;;2.43;;
4921;SDS011;16625;53.624;10.106;2022-10-16T10:19:19;5.30;;;2.27;;
4921;SDS011;16625;53.624;10.106;2022-10-16T10:21:50;5.33;;;2.37;;
4921;SDS011;16625;53.624;10.106;2022-10-16T10:24:18;3.90;;;2.10;;
4921;SDS011;16625;53.624;10.106;2022-10-16T10:26:51;4.90;;;2.20;;
4921;SDS011;16625;53.624;10.106;2022-10-16T10:29:26;6.80;;;2.67;;
4921;SDS011;16625;53.624;10.106;2022-10-16T10:32:04;9.30;;;2.50;;
4921;SDS011;16625;53.624;10.106;2022-10-16T10:34:42;3.53;;;2.30;;
4921;SDS011;16625;53.624;10.106;2022-10-16T10:37:24;7.10;;;1.97;;
4921;SDS011;16625;53.624;10.106;2022-10-16T10:40:04;8.93;;;3.10;;
4921;SDS011;16625;53.624;10.106;2022-10-16T10:42:42;3.27;;;1.77;;
4921;SDS011;16625;53.624;10.106;2022-10-16T10:45:17;10.93;;;2.50;;
4921;SDS011;16625;53.624;10.106;2022-10-16T10:47:54;9.73;;;2.90;;
4921;SDS011;16625;53.624;10.106;2022-10-16T10:50:42;3.80;;;2.37;;
4921;SDS011;16625;53.624;10.106;2022-10-16T10:53:21;4.20;;;2.20;;
4921;SDS011;16625;53.624;10.106;2022-10-16T10:56:00;10.77;;;2.20;;
4921;SDS011;16625;53.624;10.106;2022-10-16T10:58:48;4.83;;;1.83;;
4921;SDS011;16625;53.624;10.106;2022-10-16T11:01:33;8.17;;;2.17;;
4921;SDS011;16625;53.624;10.106;2022-10-16T11:04:23;5.50;;;2.10;;
4921;SDS011;16625;53.624;10.106;2022-10-16T11:07:02;4.77;;;2.40;;
4921;SDS011;16625;53.624;10.106;2022-10-16T11:09:34;5.17;;;2.30;;
4921;SDS011;16625;53.624;10.106;2022-10-16T11:12:05;5.80;;;2.00;;
4921;SDS011;16625;53.624;10.106;2022-10-16T11:14:35;4.80;;;2.63;;
4921;SDS011;16625;53.624;10.106;2022-10-16T11:17:08;2.43;;;1.70;;
4921;SDS011;16625;53.624;10.106;2022-10-16T11:19:40;2.60;;;1.70;;
4921;SDS011;16625;53.624;10.106;2022-10-16T11:22:19;5.23;;;2.37;;
4921;SDS011;16625;53.624;10.106;2022-10-16T11:24:55;3.00;;;1.87;;
4921;SDS011;16625;53.624;10.106;2022-10-16T11:27:33;6.77;;;2.20;;
4921;SDS011;16625;53.624;10.106;2022-10-16T11:30:04;3.03;;;1.63;;
4921;SDS011;16625;53.624;10.106;2022-10-16T11:32:42;2.00;;;1.60;;
4921;SDS011;16625;53.624;10.106;2022-10-16T11:35:17;3.70;;;2.00;;
4921;SDS011;16625;53.624;10.106;2022-10-16T11:37:48;3.33;;;1.70;;
4921;SDS011;16625;53.624;10.106;2022-10-16T11:40:21;5.20;;;1.90;;
4921;SDS011;16625;53.624;10.106;2022-10-16T11:42:52;3.60;;;1.50;;
4921;SDS011;16625;53.624;10.106;2022-10-16T11:45:26;3.17;;;2.10;;
4921;SDS011;16625;53.624;10.106;2022-10-16T11:48:00;10.90;;;1.50;;
4921;SDS011;16625;53.624;10.106;2022-10-16T11:50:34;4.63;;;2.30;;
4921;SDS011;16625;53.624;10.106;2022-10-16T11:53:08;2.17;;;1.60;;
4921;SDS011;16625;53.624;10.106;2022-10-16T11:55:44;14.33;;;1.90;;
4921;SDS011;16625;53.624;10.106;2022-10-16T11:58:14;3.93;;;1.80;;
4921;SDS011;16625;53.624;10.106;2022-10-16T12:00:51;4.87;;;1.70;;
4921;SDS011;16625;53.624;10.106;2022-10-16T12:03:25;5.23;;;2.00;;
4921;SDS011;16625;53.624;10.106;2022-10-16T12:06:04;8.20;;;1.73;;
4921;SDS011;16625;53.624;10.106;2022-10-16T12:08:46;5.40;;;2.00;;
4921;SDS011;16625;53.624;10.106;2022-10-16T12:11:22;5.40;;;1.73;;
4921;SDS011;16625;53.624;10.106;2022-10-16T12:14:03;3.83;;;1.90;;
4921;SDS011;16625;53.624;10.106;2022-10-16T12:16:50;3.63;;;1.90;;
4921;SDS011;16625;53.624;10.106;2022-10-16T12:19:19;4.03;;;1.63;;
4921;SDS011;16625;53.624;10.106;2022-10-16T12:21:46;5.17;;;1.93;;
4921;SDS011;16625;53.624;10.106;2022-10-16T12:24:20;2.83;;;1.80;;
4921;SDS011;16625;53.624;10.106;2022-10-16T12:26:59;2.97;;;1.77;;
4921;SDS011;16625;53.624;10.106;2022-10-16T12:29:30;4.77;;;1.97;;
4921;SDS011;16625;53.624;10.106;2022-10-16T12:32:00;5.77;;;1.90;;
4921;SDS011;16625;53.624;10.106;2022-10-16T12:34:34;5.63;;;2.03;;
4921;SDS011;16625;53.624;10.106;2022-10-16T12:37:13;7.80;;;2.10;;
4921;SDS011;16625;53.624;10.106;2022-10-16T12:39:46;5.87;;;2.23;;
4921;SDS011;16625;53.624;10.106;2022-10-16T12:42:21;3.70;;;1.93;;
4921;SDS011;16625;53.624;10.106;2022-10-16T12:44:56;6.73;;;1.93;;
4921;SDS011;16625;53.624;10.106;2022-10-16T12:47:35;4.77;;;1.77;;
4921;SDS011;16625;53.624;10.106;2022-10-16T12:50:22;10.23;;;1.93;;
4921;SDS011;16625;53.624;10.106;2022-10-16T12:52:55;4.90;;;2.03;;
4921;SDS011;16625;53.624;10.106;2022-10-16T12:55:23;9.10;;;2.10;;
4921;SDS011;16625;53.624;10.106;2022-10-16T12:58:00;10.80;;;2.13;;
4921;SDS011;16625;53.624;10.106;2022-10-16T13:00:36;3.50;;;1.83;;
4921;SDS011;16625;53.624;10.106;2022-10-16T13:03:23;4.17;;;1.83;;
4921;SDS011;16625;53.624;10.106;2022-10-16T13:06:14;5.90;;;1.83;;
4921;SDS011;16625;53.624;10.106;2022-10-16T13:08:54;4.63;;;2.30;;
4921;SDS011;16625;53.624;10.106;2022-10-16T13:11:38;6.10;;;2.43;;
4921;SDS011;16625;53.624;10.106;2022-10-16T13:17:16;7.00;;;1.80;;
4921;SDS011;16625;53.624;10.106;2022-10-16T13:19:52;6.30;;;1.83;;
4921;SDS011;16625;53.624;10.106;2022-10-16T13:22:24;6.17;;;1.93;;
4921;SDS011;16625;53.624;10.106;2022-10-16T13:25:02;7.23;;;2.10;;
4921;SDS011;16625;53.624;10.106;2022-10-16T13:27:41;8.57;;;2.30;;
4921;SDS011;16625;53.624;10.106;2022-10-16T13:30:16;4.83;;;1.80;;
4921;SDS011;16625;53.624;10.106;2022-10-16T13:32:45;6.23;;;1.90;;
4921;SDS011;16625;53.624;10.106;2022-10-16T13:35:18;4.30;;;1.90;;
4921;SDS011;16625;53.624;10.106;2022-10-16T13:37:47;2.07;;;1.57;;
4921;SDS011;16625;53.624;10.106;2022-10-16T13:40:18;6.00;;;2.00;;
4921;SDS011;16625;53.624;10.106;2022-10-16T13:42:46;8.93;;;2.30;;
4921;SDS011;16625;53.624;10.106;2022-10-16T13:45:18;6.63;;;1.80;;
4921;SDS011;16625;53.624;10.106;2022-10-16T13:47:46;4.33;;;1.50;;
4921;SDS011;16625;53.624;10.106;2022-10-16T13:50:14;3.73;;;1.47;;
4921;SDS011;16625;53.624;10.106;2022-10-16T13:52:44;3.50;;;1.50;;
4921;SDS011;16625;53.624;10.106;2022-10-16T13:55:12;8.30;;;1.93;;
4921;SDS011;16625;53.624;10.106;2022-10-16T13:57:40;6.03;;;1.83;;
4921;SDS011;16625;53.624;10.106;2022-10-16T14:00:22;6.83;;;2.07;;
4921;SDS011;16625;53.624;10.106;2022-10-16T14:02:55;7.17;;;1.90;;
4921;SDS011;16625;53.624;10.106;2022-10-16T14:05:25;5.43;;;2.07;;
4921;SDS011;16625;53.624;10.106;2022-10-16T14:07:55;4.90;;;2.20;;
4921;SDS011;16625;53.624;10.106;2022-10-16T14:10:24;11.47;;;2.20;;
4921;SDS011;16625;53.624;10.106;2022-10-16T14:12:58;6.10;;;1.93;;
4921;SDS011;16625;53.624;10.106;2022-10-16T14:15:29;6.00;;;1.80;;
4921;SDS011;16625;53.624;10.106;2022-10-16T14:17:57;6.13;;;1.90;;
4921;SDS011;16625;53.624;10.106;2022-10-16T14:20:26;5.70;;;1.53;;
4921;SDS011;16625;53.624;10.106;2022-10-16T14:22:59;2.43;;;1.43;;
4921;SDS011;16625;53.624;10.106;2022-10-16T14:25:29;13.93;;;2.23;;
4921;SDS011;16625;53.624;10.106;2022-10-16T14:27:59;6.10;;;2.07;;
4921;SDS011;16625;53.624;10.106;2022-10-16T14:30:30;7.80;;;1.90;;
4921;SDS011;16625;53.624;10.106;2022-10-16T14:33:00;5.63;;;2.10;;
4921;SDS011;16625;53.624;10.106;2022-10-16T14:35:30;5.30;;;1.70;;
4921;SDS011;16625;53.624;10.106;2022-10-16T14:37:59;8.00;;;1.97;;
4921;SDS011;16625;53.624;10.106;2022-10-16T14:40:28;11.00;;;1.73;;
4921;SDS011;16625;53.624;10.106;2022-10-16T14:42:56;7.47;;;1.83;;
4921;SDS011;16625;53.624;10.106;2022-10-16T14:45:26;12.70;;;1.83;;
4921;SDS011;16625;53.624;10.106;2022-10-16T14:47:58;7.30;;;2.00;;
4921;SDS011;16625;53.624;10.106;2022-10-16T14:50:26;7.20;;;2.00;;
4921;SDS011;16625;53.624;10.106;2022-10-16T14:52:53;6.73;;;1.90;;
4921;SDS011;16625;53.624;10.106;2022-10-16T14:55:21;7.33;;;2.00;;
4921;SDS011;16625;53.624;10.106;2022-10-16T14:57:48;5.17;;;2.30;;
4921;SDS011;16625;53.624;10.106;2022-10-16T15:00:16;4.17;;;2.03;;
4921;SDS011;16625;53.624;10.106;2022-10-16T15:02:46;8.13;;;2.67;;
4921;SDS011;16625;53.624;10.106;2022-10-16T15:05:16;7.93;;;1.90;;
4921;SDS011;16625;53.624;10.106;2022-10-16T15:07:45;7.13;;;2.60;;
4921;SDS011;16625;53.624;10.106;2022-10-16T15:10:14;6.03;;;2.00;;
4921;SDS011;16625;53.624;10.106;2022-10-16T15:12:42;13.40;;;2.00;;
4921;SDS011;16625;53.624;10.106;2022-10-16T15:15:31;8.10;;;2.10;;